Time;durP1;ratioP1;P1;durP2;ratioP2;P2;SDS_P1;SDS_P2;PMS_P1;PMS_P2;Temp;Humidity;BMP_temperature;BMP_pressure;BME280_temperature;BME280_humidity;BME280_pressure;Samples;Min_cycle;Max_cycle;Signal;HPM_P1;HPM_P2
2022/02/04 00:23:08;;;;;;;14.55;9.57;;;;;;;-4.74;73.28;93783.16;5030061;28;20096;-35
2022/02/04 00:27:54;;;;;;;17.10;10.05;;;;;;;-4.69;71.63;93787.97;5029604;28;20052;-35
2022/02/04 00:30:26;;;;;;;18.40;9.88;;;;;;;-4.90;71.29;93779.94;5029818;28;20028;-35
2022/02/04 00:32:54;;;;;;;21.88;11.20;;;;;;;-5.10;71.00;93774.91;5029978;28;20048;-35
2022/02/04 00:35:33;;;;;;;20.97;11.93;;;;;;;-5.06;71.66;93783.59;5029670;28;20029;-35
2022/02/04 00:38:12;;;;;;;15.55;9.70;;;;;;;-5.10;71.70;93791.06;5030083;28;20466;-35
2022/02/04 00:40:42;;;;;;;12.48;8.57;;;;;;;-4.95;71.32;93786.66;5029746;28;20053;-34
2022/02/04 00:43:11;;;;;;;14.38;8.25;;;;;;;-4.79;69.72;93783.75;5029677;28;20061;-35
2022/02/04 00:45:47;;;;;;;15.48;9.43;;;;;;;-4.94;69.57;93769.31;5029964;28;20033;-35
2022/02/04 00:53:36;;;;;;;17.15;10.93;;;;;;;-5.14;72.23;93778.91;5040108;28;20108;-35
2022/02/04 01:28:35;;;;;;;9.88;6.65;;;;;;;-5.99;69.88;93765.78;5032825;28;20029;-35
2022/02/04 01:31:00;;;;;;;13.27;6.47;;;;;;;-6.16;69.90;93769.81;5035557;28;20104;-35
2022/02/04 01:33:27;;;;;;;14.60;8.40;;;;;;;-6.53;70.46;93747.22;5046107;28;20152;-35
2022/02/04 01:35:54;;;;;;;11.23;7.05;;;;;;;-6.18;71.96;93767.59;5038010;28;20029;-36
2022/02/04 01:38:21;;;;;;;30.38;11.35;;;;;;;-5.91;70.49;93777.78;5042182;28;20104;-35
2022/02/04 01:40:46;;;;;;;32.38;12.02;;;;;;;-5.83;68.31;93759.47;5042942;28;20514;-34
2022/02/04 01:43:12;;;;;;;24.73;12.60;;;;;;;-6.09;70.02;93768.84;5023765;28;20021;-34
2022/02/04 01:45:37;;;;;;;18.85;10.35;;;;;;;-6.02;70.47;93763.22;5044152;28;20078;-34
2022/02/04 01:48:03;;;;;;;25.70;13.38;;;;;;;-5.99;69.56;93755.03;5040569;28;20143;-34
2022/02/04 01:50:31;;;;;;;18.85;8.95;;;;;;;-6.34;69.33;93758.91;5050381;28;20079;-34
2022/02/04 01:52:58;;;;;;;21.10;10.75;;;;;;;-6.08;68.99;93751.50;5052629;28;20029;-34
2022/02/04 01:55:25;;;;;;;28.70;13.10;;;;;;;-6.00;69.08;93760.84;5052319;28;20090;-34
2022/02/04 01:57:50;;;;;;;26.70;12.02;;;;;;;-6.25;69.11;93754.38;5036836;28;20104;-34
2022/02/04 02:00:17;;;;;;;20.05;11.63;;;;;;;-6.12;68.92;93758.94;5032166;28;20022;-35
2022/02/04 02:02:42;;;;;;;17.50;11.27;;;;;;;-6.48;69.58;93754.75;5032515;28;20029;-35
2022/02/04 02:05:08;;;;;;;21.08;11.02;;;;;;;-6.86;69.80;93764.03;5032126;28;20020;-35
2022/02/04 02:07:41;;;;;;;31.40;15.30;;;;;;;-7.06;70.18;93726.69;5032245;28;20022;-35
2022/02/04 02:10:11;;;;;;;24.25;12.82;;;;;;;-6.72;70.52;93763.59;5032455;28;20024;-35
2022/02/04 02:12:50;;;;;;;26.90;15.95;;;;;;;-6.56;70.42;93753.47;5031714;28;20535;-36
2022/02/04 02:42:46;;;;;;;30.10;15.88;;;;;;;-6.83;70.13;93773.88;5051490;28;20100;-35
2022/02/04 03:03:09;;;;;;;33.92;15.60;;;;;;;-7.06;67.95;93780.34;5031411;28;20021;-34
2022/02/04 03:05:35;;;;;;;40.65;15.18;;;;;;;-6.87;66.94;93783.97;5050899;28;20567;-34
2022/02/04 03:08:01;;;;;;;33.92;16.13;;;;;;;-7.04;67.48;93773.34;5050924;28;20064;-34
2022/02/04 03:10:26;;;;;;;34.88;16.08;;;;;;;-7.08;68.03;93780.03;5051160;28;20107;-34
2022/02/04 03:12:53;;;;;;;41.13;17.60;;;;;;;-7.07;67.97;93784.94;5050561;28;20044;-34
2022/02/04 03:15:20;;;;;;;31.40;15.70;;;;;;;-6.97;67.54;93772.38;5050786;28;20048;-35
2022/02/04 03:17:48;;;;;;;42.58;17.17;;;;;;;-7.05;68.42;93776.47;5051016;28;20025;-34
2022/02/04 03:20:15;;;;;;;31.40;15.15;;;;;;;-7.21;68.02;93776.56;5051126;28;20103;-34
2022/02/04 03:22:40;;;;;;;27.70;14.02;;;;;;;-7.22;67.03;93767.00;5050636;28;20056;-34
2022/02/04 03:25:09;;;;;;;28.45;13.48;;;;;;;-7.29;66.65;93765.28;5050678;28;20151;-34
2022/02/04 03:27:41;;;;;;;28.52;14.18;;;;;;;-7.32;67.44;93760.75;5033261;28;20025;-34
2022/02/04 03:30:17;;;;;;;30.00;14.52;;;;;;;-7.32;67.02;93760.75;5049777;28;20028;-34
2022/02/04 03:32:48;;;;;;;21.67;12.23;;;;;;;-7.53;67.01;93728.44;5050476;28;20025;-34
2022/02/04 03:35:19;;;;;;;20.92;11.00;;;;;;;-7.27;66.42;93767.53;5050405;28;20461;-34
2022/02/04 03:37:45;;;;;;;29.70;13.02;;;;;;;-7.37;66.80;93777.41;5050747;28;20024;-34
2022/02/04 03:40:11;;;;;;;19.08;11.10;;;;;;;-7.51;66.96;93777.78;5050591;28;20529;-34
2022/02/04 03:42:37;;;;;;;21.25;11.13;;;;;;;-7.67;67.23;93769.81;5035084;28;20507;-34
2022/02/04 03:45:02;;;;;;;14.98;9.48;;;;;;;-7.87;66.62;93766.53;5030625;28;20013;-34
2022/02/04 03:47:28;;;;;;;19.10;10.15;;;;;;;-7.97;67.15;93765.63;5030582;28;20486;-34
2022/02/04 03:49:53;;;;;;;22.00;10.38;;;;;;;-7.97;66.80;93762.94;5030587;28;20036;-34
2022/02/04 03:52:19;;;;;;;17.00;9.32;;;;;;;-7.84;66.30;93757.66;5030555;28;20021;-34
2022/02/04 03:54:44;;;;;;;20.65;11.55;;;;;;;-8.30;66.78;93766.91;5029389;28;20113;-34
2022/02/04 03:57:09;;;;;;;39.95;18.80;;;;;;;-8.14;69.41;93766.84;5029927;28;20071;-34
2022/02/04 03:59:35;;;;;;;23.63;11.30;;;;;;;-7.94;69.58;93758.69;5030159;28;20021;-34
2022/02/04 04:02:00;;;;;;;20.17;9.75;;;;;;;-7.75;69.29;93763.88;5030418;28;20025;-33
2022/02/04 04:04:30;;;;;;;34.13;15.52;;;;;;;-7.66;67.67;93762.50;5030448;28;20034;-34
2022/02/04 04:06:56;;;;;;;38.30;18.35;;;;;;;-7.78;66.97;93750.59;5045231;28;20032;-34
2022/02/04 04:09:21;;;;;;;39.65;19.95;;;;;;;-7.73;66.87;93750.09;5049893;28;20486;-34
2022/02/04 04:11:48;;;;;;;37.85;19.40;;;;;;;-7.69;66.13;93756.09;5049808;28;20067;-34
2022/02/04 04:14:16;;;;;;;30.15;15.85;;;;;;;-7.92;66.25;93749.03;5049859;28;20036;-34
2022/02/04 04:16:41;;;;;;;23.00;13.95;;;;;;;-7.96;66.07;93731.56;5049995;28;20029;-34
2022/02/04 04:19:07;;;;;;;42.00;19.77;;;;;;;-8.04;65.67;93754.34;5049828;28;20438;-34
2022/02/04 04:21:32;;;;;;;37.10;19.38;;;;;;;-7.99;65.66;93753.84;5050006;28;20021;-34
2022/02/04 04:24:00;;;;;;;40.10;19.20;;;;;;;-7.96;65.84;93758.34;5050078;28;20021;-34
2022/02/04 04:26:25;;;;;;;32.45;17.80;;;;;;;-8.40;67.31;93746.50;5045346;28;20036;-34
2022/02/04 04:28:51;;;;;;;39.40;17.85;;;;;;;-8.63;67.39;93755.50;5029967;28;20026;-34
2022/02/04 04:31:18;;;;;;;21.73;11.30;;;;;;;-8.33;66.27;93750.94;5028210;28;20017;-34
2022/02/04 04:33:43;;;;;;;32.33;17.65;;;;;;;-8.23;65.63;93747.22;5029440;28;20021;-34
2022/02/04 04:36:09;;;;;;;30.85;16.50;;;;;;;-8.19;66.31;93751.31;5030159;28;20079;-34
2022/02/04 04:38:54;;;;;;;39.08;19.30;;;;;;;-8.35;66.64;93750.59;5035068;28;20029;-34
2022/02/04 05:25:42;;;;;;;34.47;15.35;;;;;;;-8.35;67.42;93755.94;5034843;28;20751;-34
2022/02/04 05:27:57;;;;;;;66.22;35.88;;;;;;;-8.87;70.17;93756.06;5013677;28;20068;-33
2022/02/04 05:30:23;;;;;;;38.70;21.25;;;;;;;-8.75;70.65;93758.09;5038209;28;20036;-33
2022/02/04 05:32:48;;;;;;;41.25;25.17;;;;;;;-8.47;70.18;93762.75;5040431;28;20020;-34
2022/02/04 05:35:14;;;;;;;39.65;18.80;;;;;;;-8.29;70.06;93763.06;5050131;28;20029;-34
2022/02/04 05:37:44;;;;;;;36.47;16.98;;;;;;;-8.28;69.98;93763.81;5052656;28;20059;-34
2022/02/04 05:40:14;;;;;;;41.40;21.17;;;;;;;-8.15;70.87;93757.31;5052563;28;20551;-34
2022/02/04 05:42:46;;;;;;;53.28;20.75;;;;;;;-7.98;70.76;93761.47;5032756;28;20037;-34
2022/02/04 05:45:19;;;;;;;49.08;24.38;;;;;;;-7.88;70.08;93765.78;5036367;28;20021;-34
2022/02/04 05:47:48;;;;;;;51.75;23.10;;;;;;;-7.68;68.97;93768.31;5052811;28;20112;-34
2022/02/04 06:11:07;;;;;;;60.85;30.05;;;;;;;-7.41;68.46;93787.47;5049321;28;20037;-34
2022/02/04 06:24:28;;;;;;;40.60;21.67;;;;;;;-6.64;67.51;93797.06;5030414;28;20083;-34
2022/02/04 06:26:55;;;;;;;50.30;24.55;;;;;;;-6.52;67.26;93805.13;5038012;28;20033;-34
2022/02/04 06:29:21;;;;;;;61.58;31.50;;;;;;;-6.64;66.13;93794.38;5032464;28;20560;-34
2022/02/04 06:31:47;;;;;;;88.78;36.17;;;;;;;-6.49;65.45;93798.91;5029485;28;20037;-34
2022/02/04 06:34:12;;;;;;;69.35;34.20;;;;;;;-6.45;66.71;93799.53;5048942;28;20408;-34
2022/02/04 06:36:38;;;;;;;81.85;36.78;;;;;;;-6.25;66.69;93801.97;5050843;28;20055;-34
2022/02/04 06:39:04;;;;;;;77.00;34.00;;;;;;;-6.27;65.98;93783.59;5051770;28;20036;-34
2022/02/04 06:41:30;;;;;;;74.55;33.15;;;;;;;-6.15;65.77;93797.44;5051422;28;20502;-34
2022/02/04 06:43:55;;;;;;;115.15;44.75;;;;;;;-5.97;66.69;93800.28;5033738;28;20051;-34
2022/02/04 06:46:21;;;;;;;123.05;48.65;;;;;;;-5.79;67.20;93793.13;5051649;28;20033;-34
2022/02/04 06:48:49;;;;;;;158.90;57.83;;;;;;;-5.77;65.56;93792.69;5051518;28;20613;-34
2022/02/04 06:51:15;;;;;;;203.80;77.80;;;;;;;-5.71;65.56;93801.69;5051367;28;20512;-34
2022/02/04 06:53:41;;;;;;;238.18;78.93;;;;;;;-5.67;65.11;93800.38;5051517;28;20122;-34
2022/02/04 06:56:06;;;;;;;216.25;83.25;;;;;;;-5.53;65.01;93793.75;5049814;28;20068;-34
2022/02/04 06:58:32;;;;;;;182.73;72.72;;;;;;;-5.47;64.88;93792.00;5031498;28;20021;-34
2022/02/04 07:00:57;;;;;;;193.85;73.63;;;;;;;-5.40;66.34;93786.38;5031424;28;20697;-34
2022/02/04 07:03:23;;;;;;;160.23;62.72;;;;;;;-5.36;65.30;93792.38;5031426;28;20037;-34
2022/02/04 07:05:56;;;;;;;127.38;51.97;;;;;;;-5.13;64.80;93788.50;5031071;28;20028;-34
2022/02/04 07:08:29;;;;;;;89.97;38.50;;;;;;;-4.97;65.09;93782.88;5030602;28;20033;-34
2022/02/04 07:11:16;;;;;;;76.57;32.40;;;;;;;-4.66;64.46;93789.75;5030796;28;20065;-35
2022/02/04 07:21:06;;;;;;;116.15;53.70;;;;;;;-3.17;62.06;93789.81;5031121;28;20068;-35
2022/02/04 07:23:33;;;;;;;81.45;40.72;;;;;;;-2.85;60.33;93794.53;5030716;28;20554;-36
2022/02/04 07:25:58;;;;;;;95.18;44.53;;;;;;;-2.48;60.70;93782.41;5029157;28;20080;-36
2022/02/04 07:28:24;;;;;;;57.20;28.80;;;;;;;-2.18;59.12;93777.91;5026465;28;20029;-36
2022/02/04 07:30:50;;;;;;;45.67;28.42;;;;;;;-1.81;58.14;93786.56;5026183;28;20061;-36
2022/02/04 07:33:22;;;;;;;59.30;33.08;;;;;;;-1.67;58.53;93789.31;5026421;28;20049;-36
2022/02/04 07:38:50;;;;;;;39.63;24.23;;;;;;;-0.87;56.40;93791.06;5028323;28;20038;-35
2022/02/04 07:41:18;;;;;;;31.90;18.27;;;;;;;-0.72;55.06;93791.81;5028830;28;20025;-36
2022/02/04 07:43:43;;;;;;;30.50;17.77;;;;;;;-0.73;54.70;93793.03;5028460;28;20033;-35
2022/02/04 07:46:13;;;;;;;32.88;18.85;;;;;;;-0.96;54.76;93791.16;5027955;28;20103;-36
2022/02/04 07:48:39;;;;;;;26.92;16.55;;;;;;;-0.87;55.37;93788.34;5044387;28;20028;-36
2022/02/04 07:51:05;;;;;;;87.07;41.65;;;;;;;-1.41;54.98;93788.84;5030203;28;20052;-36
2022/02/04 07:53:31;;;;;;;57.80;29.60;;;;;;;-1.90;57.78;93792.78;5047860;28;20641;-35
2022/02/04 07:55:57;;;;;;;42.00;23.50;;;;;;;-1.19;57.66;93791.97;5046356;28;20407;-36
2022/02/04 07:58:23;;;;;;;35.20;19.15;;;;;;;-0.81;56.16;93775.66;5036440;28;20514;-35
2022/02/04 08:00:50;;;;;;;38.75;22.83;;;;;;;-0.09;55.71;93782.91;5044625;28;20028;-36
2022/02/04 08:05:53;;;;;;;15.63;8.82;;;;;;;-0.13;52.83;93787.06;5046655;28;20029;-35
2022/02/04 08:08:29;;;;;;;14.00;8.90;;;;;;;0.12;54.57;93786.44;5048202;28;20032;-35
2022/02/04 08:11:24;;;;;;;19.30;8.63;;;;;;;1.18;52.32;93786.44;5047400;28;20186;-36
2022/02/04 08:27:51;;;;;;;35.88;21.77;;;;;;;5.62;42.55;93772.13;5027322;28;20028;-36
2022/02/04 08:30:54;;;;;;;41.35;22.23;;;;;;;6.13;42.09;93764.28;5027525;28;20036;-37
2022/02/04 08:38:36;;;;;;;25.30;16.20;;;;;;;7.10;40.16;93764.97;5030510;28;20024;-36
2022/02/04 08:56:25;;;;;;;40.25;27.65;;;;;;;8.99;36.94;93764.16;5044851;28;20083;-37
2022/02/04 08:58:59;;;;;;;37.97;24.98;;;;;;;9.38;34.82;93766.13;5027612;28;20021;-37
2022/02/04 09:01:31;;;;;;;23.48;17.27;;;;;;;9.25;35.23;93762.66;5027086;28;20426;-37
2022/02/04 09:04:15;;;;;;;11.23;8.75;;;;;;;10.08;34.56;93758.78;5026415;28;20033;-37
2022/02/04 09:06:45;;;;;;;18.45;8.48;;;;;;;10.76;33.31;93764.88;5036737;28;20024;-37
2022/02/04 09:09:16;;;;;;;10.00;7.32;;;;;;;10.88;31.83;93763.28;5046867;28;20033;-37
2022/02/04 09:11:47;;;;;;;13.32;9.10;;;;;;;10.97;32.28;93762.03;5047890;28;20111;-37
2022/02/04 09:19:39;;;;;;;;;;;;;;;12.76;29.55;93754.03;5049923;28;20108;-37
2022/02/04 09:22:18;;;;;;;5.63;4.63;;;;;;;13.19;29.56;93747.53;5049622;28;19915;-37
2022/02/04 09:24:44;;;;;;;7.25;5.35;;;;;;;14.21;27.95;93750.19;5049455;28;20443;-37
2022/02/04 09:27:12;;;;;;;6.10;4.80;;;;;;;14.72;26.97;93752.44;5031256;28;20503;-37
2022/02/04 09:29:37;;;;;;;8.00;4.43;;;;;;;14.94;26.61;93741.09;5044468;28;20044;-37
2022/02/04 09:32:03;;;;;;;6.53;5.07;;;;;;;14.39;26.04;93743.44;5029930;28;20038;-37
2022/02/04 09:34:28;;;;;;;8.98;6.50;;;;;;;15.22;26.96;93737.13;5032771;28;20113;-37
2022/02/04 09:36:54;;;;;;;6.18;4.70;;;;;;;16.34;26.03;93733.50;5032658;28;20139;-37
2022/02/04 09:39:19;;;;;;;9.20;5.35;;;;;;;17.36;25.40;93735.72;5033108;28;20087;-38
2022/02/04 09:41:45;;;;;;;5.35;4.55;;;;;;;17.45;23.45;93740.56;5033055;28;20029;-38
2022/02/04 09:44:10;;;;;;;7.00;4.88;;;;;;;17.34;23.36;93734.84;5032687;28;20116;-38
2022/02/04 09:46:36;;;;;;;6.53;4.88;;;;;;;16.44;24.54;93731.47;5032639;28;20025;-38
2022/02/04 09:49:11;;;;;;;6.57;5.03;;;;;;;16.06;24.31;93732.06;5032692;28;20025;-37
2022/02/04 10:08:43;;;;;;;8.00;5.28;;;;;;;17.34;22.70;93706.91;5032588;28;20072;-37
2022/02/04 10:14:21;;;;;;;8.23;5.20;;;;;;;17.12;23.06;93710.88;5032467;28;20076;-37
2022/02/04 10:22:05;;;;;;;9.13;6.25;;;;;;;16.55;23.71;93711.47;5043558;28;20029;-37
2022/02/04 10:24:33;;;;;;;9.32;7.38;;;;;;;16.99;22.37;93711.28;5020092;28;20420;-38
2022/02/04 10:27:12;;;;;;;8.27;6.60;;;;;;;17.00;22.77;93716.28;5037738;28;20422;-37
2022/02/04 10:29:39;;;;;;;6.93;5.20;;;;;;;17.11;23.49;93717.75;5040890;28;20025;-38
2022/02/04 10:32:05;;;;;;;7.63;5.25;;;;;;;17.47;22.59;93714.13;5041507;28;20406;-37
2022/02/04 10:34:32;;;;;;;9.30;5.93;;;;;;;17.93;21.45;93709.81;5031686;28;20041;-38
2022/02/04 10:40:08;;;;;;;12.05;8.40;;;;;;;17.98;22.48;93710.84;5017830;28;20041;-38
2022/02/04 10:56:19;;;;;;;12.65;8.73;;;;;;;17.33;22.72;93671.94;5009817;28;20061;-38
2022/02/04 11:04:21;;;;;;;7.97;5.78;;;;;;;16.37;22.75;93634.81;5048839;28;20025;-38
2022/02/04 11:09:42;;;;;;;9.85;8.85;;;;;;;16.28;23.26;93655.78;5049078;28;20064;-38
2022/02/04 11:21:39;;;;;;;5.78;4.30;;;;;;;16.54;22.17;93654.25;5035942;28;20049;-38
2022/02/04 11:34:07;;;;;;;9.63;8.05;;;;;;;16.26;22.14;93633.34;5043336;28;20025;-38
2022/02/04 11:54:30;;;;;;;8.88;5.80;;;;;;;14.12;25.56;93634.91;5044424;28;20057;-37
2022/02/04 11:56:56;;;;;;;10.48;7.03;;;;;;;14.71;24.87;93643.31;5023039;28;20033;-37
2022/02/04 11:59:42;;;;;;;6.38;5.10;;;;;;;15.32;23.80;93631.50;5035944;28;20036;-37
2022/02/04 12:02:26;;;;;;;10.38;8.35;;;;;;;15.24;24.41;93648.28;5038045;28;20024;-37
2022/02/04 12:05:15;;;;;;;11.88;6.63;;;;;;;15.09;25.19;93632.50;5036172;28;20036;-37
2022/02/04 12:07:44;;;;;;;13.13;8.85;;;;;;;15.04;24.81;93630.72;5038545;28;20025;-37
2022/02/04 12:10:13;;;;;;;10.90;6.95;;;;;;;14.39;25.90;93633.06;5037718;28;20037;-36
2022/02/04 12:15:31;;;;;;;28.10;21.35;;;;;;;13.62;25.38;93628.59;5037340;28;20115;-37
2022/02/04 12:18:10;;;;;;;8.50;6.07;;;;;;;13.21;25.65;93618.13;5038205;28;20029;-36
2022/02/04 12:20:50;;;;;;;7.85;6.47;;;;;;;12.13;28.57;93606.41;5035291;28;20563;-37
2022/02/04 12:23:36;;;;;;;15.80;9.45;;;;;;;12.41;28.27;93597.16;5036647;28;20112;-37
2022/02/04 12:26:04;;;;;;;9.55;7.85;;;;;;;12.77;28.19;93594.81;5030487;28;20513;-37
2022/02/04 12:28:42;;;;;;;12.52;5.82;;;;;;;12.59;28.25;93593.19;5028125;28;20029;-38
2022/02/04 12:31:11;;;;;;;12.90;7.75;;;;;;;12.21;29.87;93590.53;5046741;28;20133;-38
2022/02/04 12:33:57;;;;;;;10.55;5.90;;;;;;;11.56;28.44;93589.41;5037981;28;20473;-37
2022/02/04 12:36:42;;;;;;;10.32;5.00;;;;;;;11.46;27.45;93585.69;5030103;28;20041;-37
2022/02/04 12:39:14;;;;;;;6.95;5.28;;;;;;;11.00;27.46;93595.91;5036410;28;20033;-37
2022/02/04 12:42:00;;;;;;;8.77;5.95;;;;;;;10.68;31.30;93592.16;5038712;28;20028;-36
2022/02/04 12:44:33;;;;;;;8.63;5.22;;;;;;;10.42;30.61;93588.31;5037215;28;20111;-36
2022/02/04 12:47:00;;;;;;;10.40;7.18;;;;;;;10.27;30.78;93593.03;5033533;28;20475;-36
2022/02/04 12:49:28;;;;;;;8.13;6.05;;;;;;;10.47;31.19;93594.97;5037617;28;20073;-36
2022/02/04 12:54:43;;;;;;;6.75;4.75;;;;;;;10.32;30.23;93587.34;5027558;28;20830;-37
2022/02/04 13:08:13;;;;;;;7.38;4.78;;;;;;;8.73;30.71;93579.72;5040640;28;20045;-36
2022/02/04 13:10:40;;;;;;;5.72;3.97;;;;;;;8.41;30.21;93579.16;5031257;28;20422;-36
2022/02/04 13:13:08;;;;;;;10.15;3.92;;;;;;;8.25;30.38;93563.72;5031117;28;20033;-36
2022/02/04 13:15:35;;;;;;;9.45;4.60;;;;;;;8.43;31.98;93575.88;5031526;28;20116;-37
2022/02/04 13:18:11;;;;;;;7.38;4.05;;;;;;;8.58;30.83;93562.31;5031616;28;20579;-36
2022/02/04 13:20:38;;;;;;;6.05;4.18;;;;;;;8.77;29.18;93571.16;5030755;28;20080;-37
2022/02/04 13:23:25;;;;;;;6.75;4.30;;;;;;;8.54;32.00;93576.41;5031342;28;20395;-36
2022/02/04 13:25:52;;;;;;;9.18;7.55;;;;;;;8.65;30.35;93565.16;5030716;28;20108;-36
2022/02/04 13:28:22;;;;;;;6.70;4.13;;;;;;;8.79;29.24;93558.31;5049484;28;20064;-36
2022/02/04 13:30:49;;;;;;;9.48;4.88;;;;;;;8.81;29.54;93563.31;5038868;28;20788;-36
2022/02/04 13:33:20;;;;;;;8.35;5.25;;;;;;;8.78;30.17;93554.09;5032958;28;20041;-36
2022/02/04 13:36:01;;;;;;;7.85;6.00;;;;;;;8.88;29.33;93548.91;5030669;28;20037;-36
2022/02/04 13:38:52;;;;;;;7.32;4.65;;;;;;;8.52;29.84;93556.94;5031386;28;20087;-37
2022/02/04 13:44:34;;;;;;;9.05;4.53;;;;;;;7.75;30.21;93523.47;5041013;28;20042;-36
2022/02/04 13:50:02;;;;;;;25.88;13.32;;;;;;;7.94;29.98;93528.84;5041652;28;20041;-36
2022/02/04 13:55:57;;;;;;;18.63;10.98;;;;;;;7.94;32.48;93523.34;5036441;28;20033;-36
2022/02/04 13:58:41;;;;;;;8.05;4.35;;;;;;;7.86;33.24;93525.25;5029016;28;20120;-36
2022/02/04 14:01:13;;;;;;;8.38;5.07;;;;;;;7.84;33.02;93533.31;5026884;28;20144;-36
2022/02/04 14:03:45;;;;;;;16.67;6.93;;;;;;;7.56;33.00;93544.78;5017480;28;20037;-35
2022/02/04 14:06:21;;;;;;;14.30;7.00;;;;;;;7.64;35.34;93535.38;5050260;28;20022;-36
2022/02/04 14:09:05;;;;;;;13.82;7.10;;;;;;;8.05;34.76;93536.88;5050433;28;20041;-36
2022/02/04 14:11:31;;;;;;;10.85;6.22;;;;;;;8.26;33.30;93535.72;5046537;28;20522;-36
2022/02/04 14:13:58;;;;;;;11.07;6.68;;;;;;;8.24;33.49;93538.22;5039313;28;20033;-36
2022/02/04 14:16:24;;;;;;;9.02;5.22;;;;;;;8.48;33.37;93536.50;5041757;28;20032;-36
2022/02/04 14:18:50;;;;;;;7.88;4.93;;;;;;;8.57;34.50;93541.56;5041722;28;20411;-36
2022/02/04 14:21:18;;;;;;;9.35;5.50;;;;;;;8.43;31.62;93549.13;5039819;28;20032;-36
2022/02/04 14:23:47;;;;;;;11.90;5.18;;;;;;;8.42;33.15;93553.16;5040055;28;20104;-36
2022/02/04 14:26:20;;;;;;;;;;;;;;;8.24;33.34;93554.72;5039391;28;20415;-37
2022/02/04 14:28:51;;;;;;;10.73;5.45;;;;;;;8.26;35.13;93562.47;5039879;28;20321;-36
2022/02/04 15:01:15;;;;;;;13.52;9.27;;;;;;;6.80;38.70;93556.53;5035754;28;20033;-36
2022/02/04 15:03:46;;;;;;;42.88;23.10;;;;;;;6.49;38.58;93554.50;5037486;28;20059;-35
2022/02/04 15:08:38;;;;;;;73.95;43.50;;;;;;;6.29;38.83;93555.75;5039345;28;20622;-35
2022/02/04 15:11:13;;;;;;;37.20;23.15;;;;;;;5.93;38.60;93551.72;5038592;28;20526;-35
2022/02/04 15:13:39;;;;;;;38.35;23.02;;;;;;;5.67;39.18;93548.75;5035341;28;20763;-35
2022/02/04 15:16:07;;;;;;;97.90;41.42;;;;;;;5.23;40.29;93531.50;5037517;28;20031;-35
2022/02/04 15:18:34;;;;;;;106.65;42.63;;;;;;;5.44;41.82;93542.00;5038612;28;20091;-35
2022/02/04 15:21:01;;;;;;;35.50;17.17;;;;;;;5.34;42.18;93536.88;5031138;28;20572;-34
2022/02/04 15:23:27;;;;;;;13.20;8.18;;;;;;;5.49;42.74;93550.16;5033246;28;20108;-35
2022/02/04 15:25:55;;;;;;;12.38;6.10;;;;;;;5.46;41.27;93540.22;5033666;28;20025;-35
2022/02/04 15:30:48;;;;;;;13.93;6.97;;;;;;;4.30;48.60;93555.59;5038076;28;20035;-35
2022/02/04 15:33:13;;;;;;;6.45;4.25;;;;;;;4.43;45.58;93547.56;5039028;28;20082;-35
2022/02/04 15:35:39;;;;;;;8.27;4.65;;;;;;;4.75;45.15;93555.28;5033071;28;20107;-35
2022/02/04 15:38:05;;;;;;;7.90;4.25;;;;;;;4.85;44.63;93554.47;5016028;28;20068;-35
2022/02/04 15:40:30;;;;;;;6.95;3.58;;;;;;;4.43;45.50;93525.69;5035548;28;20037;-35
2022/02/04 15:42:59;;;;;;;7.35;6.43;;;;;;;4.47;43.47;93545.28;5031239;28;20060;-35
2022/02/04 15:50:40;;;;;;;10.98;6.00;;;;;;;4.19;47.05;93539.25;5034211;28;20098;-35
2022/02/04 15:53:26;;;;;;;20.60;8.40;;;;;;;4.07;45.81;93537.81;5034201;28;20028;-35
2022/02/04 15:59:00;;;;;;;11.82;7.25;;;;;;;2.92;49.86;93553.28;5037137;28;20039;-34
2022/02/04 16:06:28;;;;;;;14.18;6.00;;;;;;;3.06;49.96;93544.84;5027638;28;20056;-35
2022/02/04 16:08:56;;;;;;;9.93;6.38;;;;;;;2.78;50.55;93546.84;5035315;28;20068;-35
2022/02/04 16:11:51;;;;;;;10.90;5.95;;;;;;;2.47;52.56;93514.34;5036407;28;20045;-35
2022/02/04 16:14:32;;;;;;;20.90;10.15;;;;;;;3.04;49.69;93546.56;5032449;28;20034;-35
2022/02/04 16:17:11;;;;;;;13.30;5.90;;;;;;;2.81;51.63;93539.66;5023894;28;20033;-35
2022/02/04 16:19:46;;;;;;;;;;;;;;;2.59;53.38;93554.03;5036138;28;20116;-35
2022/02/04 16:30:00;;;;;;;17.15;10.25;;;;;;;2.46;51.94;93540.13;5034636;28;20481;-35
2022/02/04 16:32:27;;;;;;;19.38;9.57;;;;;;;2.56;52.47;93544.09;5032282;28;20084;-35
2022/02/04 16:34:54;;;;;;;18.50;10.82;;;;;;;2.41;53.32;93526.50;5033292;28;20029;-35
2022/02/04 16:37:29;;;;;;;16.25;9.38;;;;;;;2.36;54.75;93532.69;5034210;28;20033;-35
2022/02/04 16:39:56;;;;;;;20.83;10.55;;;;;;;2.38;53.69;93538.41;5034326;28;20096;-35
2022/02/04 16:42:22;;;;;;;19.50;10.50;;;;;;;2.24;53.83;93529.97;5035234;28;20808;-35
2022/02/04 16:44:48;;;;;;;22.35;12.68;;;;;;;2.29;53.34;93544.81;5037140;28;20088;-35
2022/02/04 16:47:14;;;;;;;29.58;15.23;;;;;;;2.14;53.63;93553.19;5037004;28;20029;-35
2022/02/04 16:49:39;;;;;;;29.92;16.75;;;;;;;2.36;53.42;93538.16;5036305;28;20056;-35
2022/02/04 16:52:05;;;;;;;23.92;16.33;;;;;;;2.49;52.41;93544.59;5038731;28;20712;-35
2022/02/04 16:54:33;;;;;;;25.55;12.73;;;;;;;2.57;53.16;93550.31;5037169;28;20044;-35
2022/02/04 16:56:59;;;;;;;26.30;15.48;;;;;;;2.51;53.40;93553.03;5036965;28;20414;-35
2022/02/04 16:59:26;;;;;;;20.52;14.35;;;;;;;2.11;53.89;93553.44;5037918;28;20029;-35
2022/02/04 17:01:53;;;;;;;30.63;17.58;;;;;;;2.15;54.77;93543.03;5035641;28;20078;-35
2022/02/04 17:04:18;;;;;;;33.33;18.90;;;;;;;2.35;54.27;93550.28;5038633;28;20036;-35
2022/02/04 17:06:47;;;;;;;32.85;19.95;;;;;;;2.11;53.81;93529.69;5037122;28;20553;-35
2022/02/04 17:11:49;;;;;;;31.23;18.05;;;;;;;2.21;54.44;93543.78;5036991;28;20133;-35
2022/02/04 17:14:16;;;;;;;27.83;15.80;;;;;;;2.19;54.26;93541.56;5039480;28;20086;-35
2022/02/04 17:16:42;;;;;;;34.17;20.63;;;;;;;2.05;53.79;93548.00;5038539;28;20064;-35
2022/02/04 17:19:14;;;;;;;31.77;17.88;;;;;;;1.66;54.84;93546.38;5034245;28;20029;-35
2022/02/04 17:21:40;;;;;;;31.15;18.42;;;;;;;1.63;56.15;93544.63;5037090;28;20028;-35
2022/02/04 17:24:11;;;;;;;33.95;19.98;;;;;;;1.68;55.11;93544.66;5038801;28;20110;-35
2022/02/04 17:26:40;;;;;;;32.17;19.45;;;;;;;1.51;56.00;93552.00;5035582;28;20036;-35
2022/02/04 17:29:10;;;;;;;31.63;21.40;;;;;;;1.34;56.04;93553.91;5036267;28;20034;-35
2022/02/04 17:31:37;;;;;;;34.22;19.92;;;;;;;1.48;57.35;93545.56;5035827;28;20024;-35
2022/02/04 17:34:04;;;;;;;34.90;19.50;;;;;;;1.52;56.46;93554.22;5039569;28;20021;-35
2022/02/04 17:36:36;;;;;;;37.05;18.83;;;;;;;1.09;57.31;93550.03;5034750;28;20418;-35
2022/02/04 17:39:12;;;;;;;40.53;18.00;;;;;;;1.18;57.61;93552.56;5035467;28;20029;-35
2022/02/04 17:41:40;;;;;;;38.78;19.50;;;;;;;0.83;57.47;93557.53;5035985;28;20071;-35
2022/02/04 17:44:05;;;;;;;63.30;21.42;;;;;;;0.69;58.13;93555.69;5035709;28;20137;-36
2022/02/04 17:46:31;;;;;;;64.80;21.38;;;;;;;0.86;58.08;93551.13;5037238;28;20033;-35
2022/02/04 17:49:05;;;;;;;49.30;20.75;;;;;;;0.78;58.14;93558.97;5037707;28;20041;-35
2022/02/04 17:51:58;;;;;;;25.90;11.55;;;;;;;0.69;57.57;93545.56;5037280;28;20040;-35
2022/02/04 17:54:21;;;;;;;19.48;8.70;;;;;;;0.91;56.57;93555.84;5035553;28;20041;-35
2022/02/04 18:07:12;;;;;;;16.60;10.48;;;;;;;0.72;57.12;93550.03;5036191;28;20047;-35
2022/02/04 18:09:40;;;;;;;15.10;9.48;;;;;;;0.68;56.18;93554.19;5037853;28;20053;-35
2022/02/04 18:12:07;;;;;;;18.47;9.63;;;;;;;0.55;57.15;93551.13;5034132;28;20102;-35
2022/02/04 18:14:33;;;;;;;25.30;11.57;;;;;;;0.23;57.92;93557.75;5034113;28;20514;-35
2022/02/04 18:16:58;;;;;;;33.72;14.77;;;;;;;0.19;59.67;93559.94;5036815;28;20083;-35
2022/02/04 18:19:24;;;;;;;26.77;13.55;;;;;;;0.23;59.58;93561.22;5036149;28;20103;-35
2022/02/04 18:21:50;;;;;;;22.00;12.65;;;;;;;-0.13;59.49;93559.84;5035212;28;20060;-35
2022/02/04 18:24:15;;;;;;;35.65;15.80;;;;;;;-0.31;59.33;93560.16;5034696;28;20088;-35
2022/02/04 18:26:41;;;;;;;26.52;15.27;;;;;;;-0.19;60.02;93561.03;5035717;28;20013;-35
2022/02/04 18:29:06;;;;;;;37.88;19.70;;;;;;;-0.36;60.88;93562.81;5034184;28;20028;-35
2022/02/04 18:31:33;;;;;;;49.30;22.15;;;;;;;-0.31;60.81;93549.31;5018365;28;20029;-34
2022/02/04 18:34:05;;;;;;;36.13;16.98;;;;;;;-0.39;60.46;93558.34;5030613;28;20033;-34
2022/02/04 18:36:33;;;;;;;48.03;21.63;;;;;;;-0.56;61.25;93563.56;5037643;28;20453;-34